createdAt,value
2019-04-05T00:00:27.108Z,46.20
2019-04-05T00:01:44.626Z,46.30
2019-04-05T00:02:53.354Z,46.20
2019-04-05T00:04:02.210Z,46.30
2019-04-05T00:05:11.069Z,46.20
2019-04-05T00:06:21.210Z,46.20
2019-04-05T00:07:30.052Z,46.20
2019-04-05T00:08:38.849Z,46.40
2019-04-05T00:09:50.784Z,46.40
2019-04-05T00:10:59.663Z,46.30
2019-04-05T00:12:11.064Z,46.30
2019-04-05T00:13:20.930Z,46.30
2019-04-05T00:14:29.764Z,46.40
2019-04-05T00:15:38.648Z,46.30
2019-04-05T00:16:47.409Z,46.40
2019-04-05T00:17:56.264Z,46.50
2019-04-05T00:19:05.119Z,46.50
2019-04-05T00:20:14.014Z,46.50
2019-04-05T00:21:22.775Z,46.50
2019-04-05T00:22:33.646Z,46.50
2019-04-05T00:23:42.496Z,46.50
2019-04-05T00:24:51.282Z,46.50
2019-04-05T00:26:00.081Z,46.50
2019-04-05T00:27:10.779Z,46.40
2019-04-05T00:28:19.578Z,46.50
2019-04-05T00:29:28.554Z,46.40
2019-04-05T00:30:37.370Z,46.40
2019-04-05T00:31:46.284Z,46.40
2019-04-05T00:32:57.229Z,46.50
2019-04-05T00:34:06.036Z,46.50
2019-04-05T00:35:14.864Z,46.50
2019-04-05T00:36:23.674Z,46.50
2019-04-05T00:37:32.519Z,46.60
2019-04-05T00:38:41.336Z,46.50
2019-04-05T00:39:50.125Z,46.40
2019-04-05T00:40:58.933Z,46.50
2019-04-05T00:42:07.736Z,46.50
2019-04-05T00:43:16.570Z,46.50
2019-04-05T00:44:25.410Z,46.50
2019-04-05T00:45:34.190Z,46.40
2019-04-05T00:46:44.790Z,46.40
2019-04-05T00:47:53.575Z,46.50
2019-04-05T00:49:03.273Z,46.50
2019-04-05T00:50:12.068Z,46.50
2019-04-05T00:51:20.845Z,47.00
2019-04-05T00:52:29.784Z,46.40
2019-04-05T00:53:40.306Z,46.40
2019-04-05T00:54:49.077Z,46.40
2019-04-05T00:55:57.889Z,46.50
2019-04-05T00:57:06.835Z,46.40
2019-04-05T00:58:15.687Z,46.30
2019-04-05T00:59:25.863Z,46.50
2019-04-05T01:00:35.004Z,46.60
2019-04-05T01:01:43.824Z,46.50
2019-04-05T01:02:52.642Z,47.30
2019-04-05T01:04:01.557Z,46.60
2019-04-05T01:05:10.366Z,46.60
2019-04-05T01:06:21.918Z,46.60
2019-04-05T01:07:32.072Z,46.60
2019-04-05T01:08:40.864Z,46.60
2019-04-05T01:09:49.727Z,46.50
2019-04-05T01:11:01.976Z,46.50
2019-04-05T01:12:08.972Z,46.60
2019-04-05T01:13:20.274Z,46.60
2019-04-05T01:14:29.139Z,46.60
2019-04-05T01:15:41.133Z,46.60
2019-04-05T01:16:49.823Z,46.60
2019-04-05T01:17:58.704Z,46.60
2019-04-05T01:19:07.822Z,46.80
2019-04-05T01:20:16.651Z,46.60
2019-04-05T01:21:25.556Z,46.70
2019-04-05T01:22:35.311Z,46.60
2019-04-05T01:23:45.509Z,46.70
2019-04-05T01:24:54.547Z,46.70
2019-04-05T01:26:03.449Z,46.80
2019-04-05T01:27:13.412Z,46.90
2019-04-05T01:28:22.276Z,46.70
2019-04-05T01:29:35.211Z,46.80
2019-04-05T01:30:45.135Z,46.80
2019-04-05T01:31:58.823Z,46.90
2019-04-05T01:33:04.447Z,46.90
2019-04-05T01:34:15.481Z,46.80
2019-04-05T01:35:25.540Z,46.90
2019-04-05T01:36:34.386Z,46.80
2019-04-05T01:37:43.171Z,46.80
2019-04-05T01:38:51.950Z,46.80
2019-04-05T01:40:00.781Z,46.90
2019-04-05T01:41:09.563Z,47.40
2019-04-05T01:42:18.402Z,46.80
2019-04-05T01:43:27.172Z,46.70
2019-04-05T01:44:35.993Z,46.70
2019-04-05T01:45:53.613Z,46.70
2019-04-05T01:46:55.246Z,47.40
2019-04-05T01:48:04.050Z,47.50
2019-04-05T01:49:12.876Z,46.90
2019-04-05T01:50:21.711Z,46.80
2019-04-05T01:51:32.483Z,46.80
2019-04-05T01:52:41.279Z,46.80
2019-04-05T01:53:50.068Z,46.80
2019-04-05T01:54:58.855Z,46.80
2019-04-05T01:56:11.233Z,46.80
2019-04-05T01:57:20.051Z,46.90
2019-04-05T01:58:29.165Z,46.80
2019-04-05T01:59:37.978Z,46.90
2019-04-05T02:00:46.867Z,46.80
2019-04-05T02:01:55.758Z,46.80
2019-04-05T02:03:04.533Z,46.80
2019-04-05T02:04:13.421Z,46.80
2019-04-05T02:05:22.263Z,46.70
2019-04-05T02:06:33.117Z,46.70
2019-04-05T02:07:41.951Z,46.70
2019-04-05T02:08:50.793Z,46.60
2019-04-05T02:10:02.450Z,46.60
2019-04-05T02:11:12.155Z,46.60
2019-04-05T02:12:20.990Z,46.60
2019-04-05T02:13:29.810Z,46.70
2019-04-05T02:14:38.711Z,46.60
2019-04-05T02:15:47.525Z,46.70
2019-04-05T02:16:56.346Z,46.60
2019-04-05T02:18:05.156Z,47.40
2019-04-05T02:19:13.947Z,46.70
2019-04-05T02:20:22.769Z,46.60
2019-04-05T02:21:31.583Z,46.80
2019-04-05T02:22:40.411Z,46.80
2019-04-05T02:23:50.520Z,46.70
2019-04-05T02:24:59.332Z,46.90
2019-04-05T02:26:08.170Z,46.80
2019-04-05T02:27:17.027Z,46.80
2019-04-05T02:28:25.875Z,46.80
2019-04-05T02:29:34.644Z,46.80
2019-04-05T02:30:43.438Z,46.80
2019-04-05T02:31:52.282Z,46.80
2019-04-05T02:33:01.085Z,46.90
2019-04-05T02:34:09.875Z,46.90
2019-04-05T02:35:18.680Z,47.00
2019-04-05T02:36:27.497Z,47.00
2019-04-05T02:37:36.341Z,47.00
2019-04-05T02:38:45.291Z,47.10
2019-04-05T02:39:54.180Z,47.00
2019-04-05T02:41:10.618Z,47.10
2019-04-05T02:42:22.736Z,47.20
2019-04-05T02:43:31.673Z,47.20
2019-04-05T02:44:40.482Z,47.20
2019-04-05T02:45:49.329Z,47.20
2019-04-05T02:46:58.164Z,47.20
2019-04-05T02:48:06.957Z,47.20
2019-04-05T02:49:16.092Z,47.40
2019-04-05T02:50:27.342Z,47.40
2019-04-05T02:51:36.171Z,47.40
2019-04-05T02:52:45.041Z,47.40
2019-04-05T02:53:57.934Z,47.50
2019-04-05T02:55:06.751Z,47.60
2019-04-05T02:56:15.583Z,47.60
2019-04-05T02:57:24.504Z,47.70
2019-04-05T02:58:33.343Z,47.60
2019-04-05T02:59:45.984Z,47.60
2019-04-05T03:00:57.733Z,47.60
2019-04-05T03:02:06.569Z,47.70
2019-04-05T03:03:15.364Z,47.70
2019-04-05T03:04:24.187Z,47.70
2019-04-05T03:05:32.998Z,47.70
2019-04-05T03:06:41.845Z,47.80
2019-04-05T03:07:50.631Z,47.80
2019-04-05T03:08:59.823Z,47.90
2019-04-05T03:10:08.658Z,48.00
2019-04-05T03:11:17.482Z,48.00
2019-04-05T03:12:26.378Z,48.00
2019-04-05T03:13:35.210Z,48.00
2019-04-05T03:14:46.460Z,48.20
2019-04-05T03:15:55.280Z,48.10
2019-04-05T03:17:04.210Z,48.10
2019-04-05T03:18:13.110Z,48.10
2019-04-05T03:19:22.955Z,48.20
2019-04-05T03:20:31.872Z,48.20
2019-04-05T03:21:40.643Z,48.20
2019-04-05T03:22:49.488Z,48.20
2019-04-05T03:23:58.352Z,48.20
2019-04-05T03:25:07.151Z,48.30
2019-04-05T03:26:15.977Z,48.30
2019-04-05T03:27:24.756Z,48.20
2019-04-05T03:28:33.572Z,48.10
2019-04-05T03:29:42.387Z,48.30
2019-04-05T03:30:51.216Z,48.20
2019-04-05T03:32:00.124Z,48.20
2019-04-05T03:33:08.982Z,48.20
2019-04-05T03:34:17.796Z,48.80
2019-04-05T03:35:26.688Z,48.30
2019-04-05T03:36:35.677Z,48.30
2019-04-05T03:37:44.564Z,48.40
2019-04-05T03:38:53.475Z,48.40
2019-04-05T03:40:02.388Z,48.40
2019-04-05T03:41:12.024Z,48.40
2019-04-05T03:42:20.855Z,48.40
2019-04-05T03:43:29.772Z,48.50
2019-04-05T03:44:38.793Z,48.60
2019-04-05T03:45:47.687Z,48.50
2019-04-05T03:46:57.930Z,48.60
2019-04-05T03:48:09.690Z,48.60
2019-04-05T03:49:18.498Z,48.50
2019-04-05T03:50:27.269Z,48.60
2019-04-05T03:51:36.072Z,48.60
2019-04-05T03:52:44.928Z,48.60
2019-04-05T03:53:53.772Z,48.60
2019-04-05T03:55:02.596Z,48.50
2019-04-05T03:56:14.007Z,48.60
2019-04-05T03:57:22.839Z,48.70
2019-04-05T03:58:31.920Z,48.70
2019-04-05T03:59:40.874Z,48.70
2019-04-05T04:00:51.132Z,48.70
2019-04-05T04:02:00.097Z,48.70
2019-04-05T04:03:08.932Z,48.70
2019-04-05T04:04:17.712Z,48.90
2019-04-05T04:05:26.578Z,48.80
2019-04-05T04:06:35.415Z,48.80
2019-04-05T04:07:44.296Z,48.90
2019-04-05T04:08:55.024Z,49.00
2019-04-05T04:10:03.864Z,49.00
2019-04-05T04:11:12.770Z,49.10
2019-04-05T04:12:21.580Z,49.00
2019-04-05T04:13:30.423Z,48.90
2019-04-05T04:14:41.677Z,48.90
2019-04-05T04:15:49.736Z,49.00
2019-04-05T04:17:12.302Z,48.90
2019-04-05T04:18:09.928Z,49.00
2019-04-05T04:19:18.797Z,48.80
2019-04-05T04:20:27.580Z,48.90
2019-04-05T04:21:36.382Z,48.90
2019-04-05T04:22:48.436Z,48.90
2019-04-05T04:23:55.711Z,48.90
2019-04-05T04:25:04.521Z,49.00
2019-04-05T04:26:13.315Z,49.50
2019-04-05T04:27:22.127Z,49.20
2019-04-05T04:28:31.003Z,49.30
2019-04-05T04:29:39.828Z,49.40
2019-04-05T04:30:50.650Z,49.50
2019-04-05T04:32:00.486Z,49.50
2019-04-05T04:33:09.368Z,50.10
2019-04-05T04:34:18.179Z,49.40
2019-04-05T04:35:27.006Z,49.40
2019-04-05T04:36:37.166Z,49.30
2019-04-05T04:37:45.968Z,50.00
2019-04-05T04:38:54.802Z,49.80
2019-04-05T04:40:03.627Z,49.40
2019-04-05T04:41:12.493Z,49.40
2019-04-05T04:42:21.367Z,49.40
2019-04-05T04:43:32.787Z,49.30
2019-04-05T04:44:41.843Z,49.30
2019-04-05T04:45:50.715Z,49.30
2019-04-05T04:47:00.562Z,49.30
2019-04-05T04:48:09.426Z,49.30
2019-04-05T04:49:18.288Z,49.20
2019-04-05T04:50:28.321Z,49.10
2019-04-05T04:51:38.174Z,49.00
2019-04-05T04:52:47.077Z,49.00
2019-04-05T04:54:16.621Z,49.00
2019-04-05T04:55:24.734Z,48.90
2019-04-05T04:56:48.363Z,49.10
2019-04-05T04:57:57.266Z,49.00
2019-04-05T04:59:12.327Z,48.80
2019-04-05T05:00:14.387Z,49.00
2019-04-05T05:01:23.441Z,49.20
2019-04-05T05:02:32.414Z,49.10
2019-04-05T05:03:42.980Z,49.00
2019-04-05T05:04:55.275Z,48.90
2019-04-05T05:06:05.569Z,49.00
2019-04-05T05:07:14.434Z,49.10
2019-04-05T05:08:26.316Z,49.00
2019-04-05T05:09:37.688Z,49.10
2019-04-05T05:10:53.931Z,49.00
2019-04-05T05:12:08.473Z,48.90
2019-04-05T05:13:22.033Z,48.80
2019-04-05T05:14:30.708Z,48.80
2019-04-05T05:15:47.282Z,48.80
2019-04-05T05:17:03.872Z,48.70
2019-04-05T05:18:03.628Z,48.80
2019-04-05T05:19:16.459Z,48.70
2019-04-05T05:20:25.279Z,48.60
2019-04-05T05:21:38.023Z,48.70
2019-04-05T05:23:09.202Z,48.60
2019-04-05T05:24:14.866Z,48.40
2019-04-05T05:25:47.460Z,48.40
2019-04-05T05:26:54.603Z,48.30
2019-04-05T05:28:05.104Z,48.40
2019-04-05T05:29:19.969Z,48.30
2019-04-05T05:30:27.038Z,48.20
2019-04-05T05:31:39.847Z,48.20
2019-04-05T05:32:55.156Z,48.00
2019-04-05T05:34:03.057Z,48.00
2019-04-05T05:35:21.695Z,48.10
2019-04-05T05:36:29.807Z,48.20
2019-04-05T05:37:38.822Z,48.20
2019-04-05T05:38:53.458Z,48.20
2019-04-05T05:40:03.239Z,48.20
2019-04-05T05:41:18.820Z,48.00
2019-04-05T05:42:30.127Z,47.90
2019-04-05T05:43:38.130Z,47.80
2019-04-05T05:44:50.978Z,47.90
2019-04-05T05:46:03.034Z,47.90
2019-04-05T05:47:11.835Z,47.80
2019-04-05T05:48:20.638Z,47.70
2019-04-05T05:49:33.710Z,47.70
2019-04-05T05:50:42.673Z,47.80
2019-04-05T05:51:51.454Z,47.70
2019-04-05T05:53:00.279Z,47.60
2019-04-05T05:54:09.135Z,47.60
2019-04-05T05:55:17.924Z,47.60
2019-04-05T05:56:26.704Z,47.60
2019-04-05T05:57:35.618Z,47.50
2019-04-05T05:58:44.469Z,47.40
2019-04-05T05:59:54.472Z,47.30
2019-04-05T06:01:03.330Z,47.20
2019-04-05T06:02:12.243Z,47.20
2019-04-05T06:03:21.058Z,47.10
2019-04-05T06:04:29.998Z,47.10
2019-04-05T06:05:38.790Z,47.10
2019-04-05T06:06:47.671Z,46.50
2019-04-05T06:07:56.512Z,47.00
2019-04-05T06:09:05.248Z,46.90
2019-04-05T06:10:20.047Z,46.90
2019-04-05T06:11:44.044Z,46.80
2019-04-05T06:12:44.928Z,46.80
2019-04-05T06:13:53.037Z,46.80
2019-04-05T06:15:06.878Z,46.60
2019-04-05T06:16:22.680Z,46.50
2019-04-05T06:17:26.277Z,46.60
2019-04-05T06:18:37.843Z,46.50
2019-04-05T06:19:53.488Z,46.50
2019-04-05T06:21:03.239Z,46.40
2019-04-05T06:22:14.035Z,46.50
2019-04-05T06:23:33.114Z,46.40
2019-04-05T06:24:33.316Z,46.50
2019-04-05T06:25:42.196Z,46.40
2019-04-05T06:26:51.083Z,46.30
2019-04-05T06:28:05.061Z,46.10
2019-04-05T06:29:20.696Z,46.00
2019-04-05T06:30:35.856Z,46.00
2019-04-05T06:31:43.173Z,45.80
2019-04-05T06:32:55.898Z,45.80
2019-04-05T06:34:27.528Z,45.70
2019-04-05T06:35:17.596Z,45.50
2019-04-05T06:36:36.166Z,45.50
2019-04-05T06:37:47.811Z,45.50
2019-04-05T06:39:11.540Z,45.50
2019-04-05T06:40:16.764Z,45.40
2019-04-05T06:41:23.944Z,45.30
2019-04-05T06:42:32.963Z,45.30
2019-04-05T06:43:41.772Z,45.30
2019-04-05T06:44:54.886Z,45.10
2019-04-05T06:46:18.707Z,45.20
2019-04-05T06:47:14.291Z,45.10
2019-04-05T06:48:23.107Z,45.10
2019-04-05T06:49:31.908Z,45.10
2019-04-05T06:50:41.641Z,45.00
2019-04-05T06:51:52.790Z,45.00
2019-04-05T06:53:01.639Z,45.00
2019-04-05T06:54:10.500Z,44.90
2019-04-05T06:55:19.664Z,44.70
2019-04-05T06:56:28.456Z,44.70
2019-04-05T06:57:37.315Z,44.60
2019-04-05T06:58:46.509Z,44.60
2019-04-05T06:59:55.435Z,44.40
2019-04-05T07:01:05.237Z,44.40
2019-04-05T07:02:14.020Z,44.50
2019-04-05T07:03:22.932Z,44.60
2019-04-05T07:04:31.724Z,45.30
2019-04-05T07:05:40.532Z,44.50
2019-04-05T07:06:49.317Z,44.40
2019-04-05T07:07:58.106Z,44.50
2019-04-05T07:09:07.223Z,44.70
2019-04-05T07:10:16.042Z,44.80
2019-04-05T07:11:24.876Z,44.80
2019-04-05T07:12:33.708Z,44.80
2019-04-05T07:13:42.558Z,44.60
2019-04-05T07:14:51.387Z,44.50
2019-04-05T07:16:00.167Z,44.50
2019-04-05T07:17:08.982Z,44.50
2019-04-05T07:18:17.819Z,44.50
2019-04-05T07:19:26.606Z,44.50
2019-04-05T07:20:35.490Z,44.40
2019-04-05T07:21:44.303Z,44.30
2019-04-05T07:22:53.099Z,44.40
2019-04-05T07:24:01.887Z,44.40
2019-04-05T07:25:10.677Z,44.30
2019-04-05T07:26:20.925Z,44.30
2019-04-05T07:27:30.035Z,44.30
2019-04-05T07:28:38.819Z,44.30
2019-04-05T07:29:47.619Z,44.10
2019-04-05T07:30:56.430Z,43.90
2019-04-05T07:32:05.264Z,44.00
2019-04-05T07:33:14.114Z,43.90
2019-04-05T07:34:22.931Z,43.70
2019-04-05T07:35:33.522Z,43.60
2019-04-05T07:36:42.194Z,43.60
2019-04-05T07:37:51.026Z,43.50
2019-04-05T07:38:59.900Z,43.40
2019-04-05T07:40:08.812Z,43.50
2019-04-05T07:41:17.649Z,43.50
2019-04-05T07:42:26.500Z,43.60
2019-04-05T07:43:35.205Z,43.70
2019-04-05T07:44:44.096Z,43.70
2019-04-05T07:45:52.935Z,43.50
2019-04-05T07:47:01.701Z,43.40
2019-04-05T07:48:10.480Z,43.40
2019-04-05T07:49:19.315Z,43.30
2019-04-05T07:50:28.127Z,43.20
2019-04-05T07:51:36.930Z,43.00
2019-04-05T07:52:45.736Z,43.10
2019-04-05T07:53:54.547Z,43.10
2019-04-05T07:55:03.459Z,43.10
2019-04-05T07:56:12.298Z,43.10
2019-04-05T07:57:23.144Z,43.10
2019-04-05T07:58:32.687Z,43.10
2019-04-05T07:59:41.529Z,42.80
2019-04-05T08:00:50.372Z,42.70
2019-04-05T08:01:59.186Z,42.70
2019-04-05T08:03:08.026Z,42.60
2019-04-05T08:04:16.844Z,42.60
2019-04-05T08:05:25.660Z,42.50
2019-04-05T08:06:36.861Z,42.60
2019-04-05T08:07:45.696Z,42.70
2019-04-05T08:08:54.558Z,42.70
2019-04-05T08:10:03.381Z,42.80
2019-04-05T08:11:12.195Z,42.80
2019-04-05T08:12:21.113Z,42.80
2019-04-05T08:13:29.906Z,43.30
2019-04-05T08:14:38.721Z,42.80
2019-04-05T08:15:47.596Z,42.70
2019-04-05T08:16:56.369Z,42.80
2019-04-05T08:18:05.242Z,42.80
2019-04-05T08:19:14.043Z,42.70
2019-04-05T08:20:25.183Z,42.80
2019-04-05T08:21:35.342Z,42.70
2019-04-05T08:22:44.172Z,43.20
2019-04-05T08:23:53.045Z,42.40
2019-04-05T08:25:04.622Z,42.30
2019-04-05T08:26:13.488Z,42.30
2019-04-05T08:27:22.355Z,42.20
2019-04-05T08:28:31.164Z,42.20
2019-04-05T08:29:40.056Z,42.30
2019-04-05T08:30:50.075Z,42.20
2019-04-05T08:31:58.903Z,42.10
2019-04-05T08:33:10.389Z,42.10
2019-04-05T08:34:19.281Z,42.20
2019-04-05T08:35:28.132Z,42.30
2019-04-05T08:36:38.541Z,42.30
2019-04-05T08:37:47.595Z,42.20
2019-04-05T08:38:56.366Z,42.20
2019-04-05T08:40:05.264Z,42.00
2019-04-05T08:41:15.088Z,42.00
2019-04-05T08:42:26.392Z,41.90
2019-04-05T08:43:35.233Z,42.00
2019-04-05T08:44:44.395Z,42.00
2019-04-05T08:45:53.243Z,42.00
2019-04-05T08:47:02.122Z,42.00
2019-04-05T08:48:13.392Z,42.00
2019-04-05T08:49:21.483Z,42.10
2019-04-05T08:50:31.464Z,41.90
2019-04-05T08:51:40.363Z,41.90
2019-04-05T08:52:51.544Z,41.90
2019-04-05T08:53:59.560Z,41.80
2019-04-05T08:55:09.417Z,41.60
2019-04-05T08:56:18.335Z,41.60
2019-04-05T08:57:27.155Z,41.60
2019-04-05T08:58:37.496Z,41.40
2019-04-05T08:59:43.909Z,41.40
2019-04-05T09:00:52.672Z,41.40
2019-04-05T09:02:01.519Z,41.30
2019-04-05T09:03:11.957Z,41.30
2019-04-05T09:04:20.805Z,41.30
2019-04-05T09:05:33.562Z,41.50
2019-04-05T09:06:42.593Z,41.40
2019-04-05T09:07:54.238Z,41.40
2019-04-05T09:09:03.131Z,41.50
2019-04-05T09:10:14.690Z,41.60
2019-04-05T09:11:26.838Z,41.50
2019-04-05T09:12:35.714Z,41.60
2019-04-05T09:13:45.630Z,41.50
2019-04-05T09:14:54.453Z,41.40
2019-04-05T09:16:03.365Z,41.40
2019-04-05T09:17:14.958Z,41.40
2019-04-05T09:18:26.443Z,41.30
2019-04-05T09:19:34.149Z,41.20
2019-04-05T09:20:43.027Z,41.20
2019-04-05T09:21:51.874Z,41.10
2019-04-05T09:23:00.735Z,41.10
2019-04-05T09:24:09.566Z,41.00
2019-04-05T09:25:19.787Z,41.10
2019-04-05T09:26:26.530Z,41.00
2019-04-05T09:27:35.357Z,41.00
2019-04-05T09:28:44.296Z,40.80
2019-04-05T09:29:53.073Z,40.90
2019-04-05T09:31:06.017Z,41.00
2019-04-05T09:32:16.057Z,41.10
2019-04-05T09:33:25.048Z,41.00
2019-04-05T09:34:33.833Z,40.70
2019-04-05T09:35:42.686Z,40.60
2019-04-05T09:37:01.967Z,40.60
2019-04-05T09:38:10.803Z,40.60
2019-04-05T09:39:20.449Z,40.50
2019-04-05T09:40:29.272Z,40.40
2019-04-05T09:41:39.597Z,40.30
2019-04-05T09:42:48.403Z,40.30
2019-04-05T09:44:00.036Z,40.30
2019-04-05T09:45:09.195Z,40.30
2019-04-05T09:46:20.497Z,40.30
2019-04-05T09:47:28.559Z,40.40
2019-04-05T09:48:37.408Z,40.30
2019-04-05T09:49:47.309Z,40.40
2019-04-05T09:50:56.143Z,40.30
2019-04-05T09:52:06.407Z,40.30
2019-04-05T09:53:16.110Z,40.40
2019-04-05T09:54:24.907Z,40.40
2019-04-05T09:55:35.233Z,40.30
2019-04-05T09:56:49.343Z,40.30
2019-04-05T09:58:01.216Z,40.30
2019-04-05T09:59:08.595Z,40.10
2019-04-05T10:00:20.497Z,40.20
2019-04-05T10:01:29.325Z,40.10
2019-04-05T10:02:38.215Z,40.20
2019-04-05T10:03:49.497Z,40.10
2019-04-05T10:04:58.389Z,40.00
2019-04-05T10:06:07.293Z,39.70
2019-04-05T10:07:16.205Z,39.70
2019-04-05T10:08:25.041Z,39.60
2019-04-05T10:09:33.851Z,39.60
2019-04-05T10:10:42.706Z,39.50
2019-04-05T10:11:51.699Z,39.50
2019-04-05T10:13:00.511Z,39.50
2019-04-05T10:14:09.381Z,39.40
2019-04-05T10:15:22.103Z,39.40
2019-04-05T10:16:31.159Z,39.20
2019-04-05T10:17:40.109Z,39.30
2019-04-05T10:18:51.420Z,39.50
2019-04-05T10:19:59.401Z,39.50
2019-04-05T10:21:08.203Z,39.60
2019-04-05T10:22:17.057Z,39.50
2019-04-05T10:23:25.825Z,39.50
2019-04-05T10:24:39.262Z,39.50
2019-04-05T10:25:49.242Z,38.90
2019-04-05T10:26:58.156Z,39.10
2019-04-05T10:28:07.021Z,39.10
2019-04-05T10:29:22.545Z,38.90
2019-04-05T10:30:30.877Z,38.70
2019-04-05T10:31:36.803Z,38.60
2019-04-05T10:32:46.995Z,38.80
2019-04-05T10:33:56.112Z,38.60
2019-04-05T10:35:16.447Z,38.70
2019-04-05T10:36:25.243Z,38.90
2019-04-05T10:37:34.467Z,39.00
2019-04-05T10:38:43.299Z,38.80
2019-04-05T10:39:52.197Z,38.70
2019-04-05T10:41:01.921Z,38.80
2019-04-05T10:42:10.813Z,38.70
2019-04-05T10:43:19.653Z,38.70
2019-04-05T10:44:30.929Z,38.50
2019-04-05T10:45:38.973Z,38.50
2019-04-05T10:46:47.849Z,38.50
2019-04-05T10:47:56.650Z,38.60
2019-04-05T10:49:05.474Z,38.80
2019-04-05T10:50:15.275Z,38.80
2019-04-05T10:51:24.162Z,38.90
2019-04-05T10:52:32.980Z,38.90
2019-04-05T10:53:41.820Z,38.80
2019-04-05T10:54:50.723Z,38.60
2019-04-05T10:55:59.577Z,38.70
2019-04-05T10:57:09.879Z,38.80
2019-04-05T10:58:19.370Z,38.70
2019-04-05T10:59:30.810Z,38.80
2019-04-05T11:00:40.040Z,38.50
2019-04-05T11:01:46.615Z,38.50
2019-04-05T11:02:56.249Z,38.60
2019-04-05T11:04:05.137Z,38.60
2019-04-05T11:05:13.959Z,38.60
2019-04-05T11:06:22.803Z,38.40
2019-04-05T11:07:36.958Z,37.60
2019-04-05T11:08:42.145Z,37.50
2019-04-05T11:09:53.317Z,37.60
2019-04-05T11:11:01.353Z,37.80
2019-04-05T11:12:11.085Z,37.60
2019-04-05T11:13:20.552Z,36.90
2019-04-05T11:14:31.478Z,37.20
2019-04-05T11:15:40.320Z,37.30
2019-04-05T11:16:58.459Z,37.20
2019-04-05T11:17:59.634Z,37.20
2019-04-05T11:19:08.477Z,37.30
2019-04-05T11:20:22.102Z,37.60
2019-04-05T11:21:31.653Z,37.60
2019-04-05T11:22:40.482Z,37.60
2019-04-05T11:23:49.306Z,37.50
2019-04-05T11:24:58.155Z,37.40
2019-04-05T11:26:07.003Z,37.10
2019-04-05T11:27:15.965Z,37.10
2019-04-05T11:28:24.866Z,37.30
2019-04-05T11:29:33.706Z,37.10
2019-04-05T11:30:42.566Z,37.30
2019-04-05T11:31:57.303Z,37.50
2019-04-05T11:33:01.826Z,37.40
2019-04-05T11:34:10.717Z,37.50
2019-04-05T11:35:22.397Z,37.40
2019-04-05T11:36:31.200Z,37.30
2019-04-05T11:37:42.739Z,37.30
2019-04-05T11:38:51.068Z,37.30
2019-04-05T11:40:00.093Z,37.30
2019-04-05T11:41:08.943Z,37.20
2019-04-05T11:42:17.755Z,37.30
2019-04-05T11:43:28.091Z,37.10
2019-04-05T11:44:37.027Z,37.10
2019-04-05T11:45:45.890Z,37.00
2019-04-05T11:46:54.747Z,36.90
2019-04-05T11:48:03.592Z,37.00
2019-04-05T11:49:12.510Z,36.90
2019-04-05T11:50:33.870Z,36.70
2019-04-05T11:51:33.524Z,36.70
2019-04-05T11:52:58.846Z,36.40
2019-04-05T11:54:14.495Z,36.50
2019-04-05T11:55:24.308Z,36.30
2019-04-05T11:56:32.724Z,36.40
2019-04-05T11:57:42.018Z,36.50
2019-04-05T11:58:50.973Z,36.20
2019-04-05T12:00:02.068Z,36.20
2019-04-05T12:01:11.307Z,36.30
2019-04-05T12:02:20.140Z,36.50
2019-04-05T12:03:32.645Z,36.60
2019-04-05T12:04:39.394Z,36.50
2019-04-05T12:05:55.870Z,36.40
2019-04-05T12:07:05.627Z,36.50
2019-04-05T12:08:14.442Z,36.50
2019-04-05T12:09:23.227Z,36.40
2019-04-05T12:10:32.245Z,36.50
2019-04-05T12:11:41.118Z,36.60
2019-04-05T12:12:49.921Z,36.70
2019-04-05T12:13:58.715Z,36.60
2019-04-05T12:15:07.494Z,36.50
2019-04-05T12:16:16.327Z,36.50
2019-04-05T12:17:27.383Z,36.30
2019-04-05T12:18:36.247Z,36.20
2019-04-05T12:19:45.026Z,36.30
2019-04-05T12:20:59.921Z,36.30
2019-04-05T12:22:07.609Z,36.20
2019-04-05T12:23:15.926Z,36.20
2019-04-05T12:24:25.649Z,36.30
2019-04-05T12:25:34.572Z,36.30
2019-04-05T12:26:43.591Z,36.10
2019-04-05T12:28:05.188Z,36.10
2019-04-05T12:29:02.896Z,36.30
2019-04-05T12:30:11.823Z,36.30
2019-04-05T12:31:21.770Z,36.10
2019-04-05T12:32:34.521Z,36.10
2019-04-05T12:33:41.031Z,36.20
2019-04-05T12:34:51.854Z,36.10
2019-04-05T12:36:09.135Z,36.00
2019-04-05T12:37:22.501Z,36.20
2019-04-05T12:38:31.162Z,36.10
2019-04-05T12:39:39.113Z,36.30
2019-04-05T12:40:47.924Z,36.90
2019-04-05T12:41:56.742Z,36.00
2019-04-05T12:43:05.602Z,36.00
2019-04-05T12:44:15.153Z,35.70
2019-04-05T12:45:24.392Z,35.60
2019-04-05T12:46:33.245Z,35.70
2019-04-05T12:47:45.364Z,35.90
2019-04-05T12:48:50.089Z,35.80
2019-04-05T12:50:00.933Z,35.80
2019-04-05T12:51:13.224Z,35.80
2019-04-05T12:52:23.049Z,35.90
2019-04-05T12:53:35.348Z,36.00
2019-04-05T12:54:44.146Z,36.10
2019-04-05T12:55:56.874Z,36.10
2019-04-05T12:57:06.514Z,36.10
2019-04-05T12:58:16.649Z,36.10
2019-04-05T12:59:25.941Z,36.00
2019-04-05T13:00:34.824Z,36.00
2019-04-05T13:01:48.608Z,35.60
2019-04-05T13:02:57.575Z,35.30
2019-04-05T13:04:06.478Z,35.20
2019-04-05T13:05:20.369Z,35.20
2019-04-05T13:06:27.665Z,35.20
2019-04-05T13:07:36.547Z,35.10
2019-04-05T13:08:48.000Z,35.10
2019-04-05T13:09:57.007Z,35.10
2019-04-05T13:11:05.891Z,34.90
2019-04-05T13:12:14.685Z,35.10
2019-04-05T13:13:26.584Z,35.00
2019-04-05T13:14:33.995Z,35.20
2019-04-05T13:15:42.860Z,35.40
2019-04-05T13:16:51.681Z,35.40
2019-04-05T13:18:01.190Z,35.30
2019-04-05T13:19:12.855Z,35.40
2019-04-05T13:20:20.852Z,35.10
2019-04-05T13:21:32.072Z,35.10
2019-04-05T13:22:40.193Z,35.10
2019-04-05T13:23:49.043Z,35.10
2019-04-05T13:24:57.901Z,35.00
2019-04-05T13:26:06.699Z,34.90
2019-04-05T13:27:17.918Z,34.90
2019-04-05T13:28:26.462Z,34.50
2019-04-05T13:29:38.286Z,34.70
2019-04-05T13:30:48.462Z,34.80
2019-04-05T13:31:57.596Z,34.90
2019-04-05T13:33:06.538Z,35.00
2019-04-05T13:34:18.138Z,35.00
2019-04-05T13:35:25.960Z,34.80
2019-04-05T13:36:38.119Z,35.60
2019-04-05T13:37:47.217Z,34.80
2019-04-05T13:38:59.449Z,34.60
2019-04-05T13:40:08.905Z,34.30
2019-04-05T13:41:19.057Z,34.20
2019-04-05T13:42:27.448Z,34.10
2019-04-05T13:43:36.308Z,34.20
2019-04-05T13:44:45.125Z,33.80
2019-04-05T13:45:53.935Z,33.90
2019-04-05T13:47:02.983Z,33.90
2019-04-05T13:48:12.462Z,33.90
2019-04-05T13:49:21.364Z,33.90
2019-04-05T13:50:30.163Z,34.20
2019-04-05T13:51:41.613Z,34.20
2019-04-05T13:52:49.583Z,34.30
2019-04-05T13:53:58.460Z,34.40
2019-04-05T13:55:11.235Z,34.30
2019-04-05T13:56:19.137Z,34.20
2019-04-05T13:57:28.612Z,34.40
2019-04-05T13:58:37.634Z,34.30
2019-04-05T13:59:49.281Z,34.20
2019-04-05T14:00:58.162Z,34.20
2019-04-05T14:02:11.916Z,34.30
2019-04-05T14:03:21.028Z,34.20
2019-04-05T14:04:29.924Z,34.00
2019-04-05T14:05:38.766Z,34.20
2019-04-05T14:06:47.678Z,34.40
2019-04-05T14:08:09.817Z,34.30
2019-04-05T14:09:10.236Z,34.20
2019-04-05T14:10:18.482Z,34.00
2019-04-05T14:11:27.290Z,34.20
2019-04-05T14:12:37.694Z,34.30
2019-04-05T14:13:46.620Z,34.40
2019-04-05T14:14:55.472Z,34.60
2019-04-05T14:16:06.183Z,34.50
2019-04-05T14:17:14.681Z,34.20
2019-04-05T14:18:23.450Z,35.00
2019-04-05T14:19:33.300Z,34.20
2019-04-05T14:20:50.056Z,34.00
2019-04-05T14:22:08.348Z,34.00
2019-04-05T14:23:08.845Z,34.70
2019-04-05T14:24:17.649Z,34.20
2019-04-05T14:25:29.864Z,34.30
2019-04-05T14:26:39.244Z,34.50
2019-04-05T14:27:49.606Z,34.30
2019-04-05T14:28:56.162Z,34.20
2019-04-05T14:30:07.710Z,34.20
2019-04-05T14:31:16.590Z,34.10
2019-04-05T14:32:26.916Z,34.10
2019-04-05T14:33:35.966Z,34.10
2019-04-05T14:34:53.887Z,33.90
2019-04-05T14:36:00.868Z,33.90
2019-04-05T14:37:09.736Z,33.90
2019-04-05T14:38:23.188Z,33.90
2019-04-05T14:39:32.464Z,34.00
2019-04-05T14:40:41.892Z,34.00
2019-04-05T14:42:09.019Z,34.00
2019-04-05T14:43:06.332Z,34.10
2019-04-05T14:44:17.666Z,34.20
2019-04-05T14:45:28.135Z,34.30
2019-04-05T14:46:38.383Z,34.30
2019-04-05T14:47:47.500Z,34.40
2019-04-05T14:48:56.354Z,34.40
2019-04-05T14:50:05.172Z,34.50
2019-04-05T14:51:14.964Z,34.50
2019-04-05T14:52:25.581Z,34.50
2019-04-05T14:53:34.273Z,34.50
2019-04-05T14:54:43.320Z,34.50
2019-04-05T14:55:52.280Z,34.30
2019-04-05T14:57:05.449Z,34.20
2019-04-05T14:58:11.618Z,34.20